Terminal Aerodrome Forecast
Issued by NWS

Home | Current Version | Previous Version | Text Only | Print | Product List | Glossary On
Versions: 1 2 3 4 5 6 7 8 9 10 11 12 13 14 15 16 17
000
FTAK31 PANC 250403 AAC
TAFAGK
TAF AMD
PAGK 250403Z 2504/2524 VRB03KT 5SM -SN SCT020 OVC040
      TEMPO 2504/2506 2SM -SN BKN015
     FM250800 33005KT P6SM -SN BKN025
     FM251100 VRB03KT P6SM VCFG SCT005 BKN025
     FM252000 VRB03KT P6SM SCT025 BKN080=

USA.gov is the U.S. government's official web portal to all federal, state and local government web resources and services.